sensor_id;sensor_type;location;lat;lon;timestamp;pressure;altitude;pressure_sealevel;temperature;humidity
28588;BME280;15787;49.662;10.162;2023-08-08T00:02:23;99154.53;;;13.65;100.00
28588;BME280;15787;49.662;10.162;2023-08-08T00:04:56;99147.44;;;13.86;100.00
28588;BME280;15787;49.662;10.162;2023-08-08T00:07:29;99154.34;;;13.60;100.00
28588;BME280;15787;49.662;10.162;2023-08-08T00:10:03;99164.09;;;13.80;100.00
28588;BME280;15787;49.662;10.162;2023-08-08T00:12:36;99156.91;;;13.79;100.00
28588;BME280;15787;49.662;10.162;2023-08-08T00:15:10;99151.81;;;14.00;100.00
28588;BME280;15787;49.662;10.162;2023-08-08T00:17:43;99168.13;;;13.92;100.00
28588;BME280;15787;49.662;10.162;2023-08-08T00:20:16;99163.06;;;14.00;100.00
28588;BME280;15787;49.662;10.162;2023-08-08T00:22:49;99160.34;;;14.09;100.00
28588;BME280;15787;49.662;10.162;2023-08-08T00:25:22;99162.97;;;13.78;100.00
28588;BME280;15787;49.662;10.162;2023-08-08T00:27:55;99163.63;;;13.82;100.00
28588;BME280;15787;49.662;10.162;2023-08-08T00:30:30;99162.75;;;13.85;100.00
28588;BME280;15787;49.662;10.162;2023-08-08T00:33:03;99163.75;;;13.78;100.00
28588;BME280;15787;49.662;10.162;2023-08-08T00:35:37;99154.75;;;13.71;100.00
28588;BME280;15787;49.662;10.162;2023-08-08T00:38:10;99152.28;;;13.73;100.00
28588;BME280;15787;49.662;10.162;2023-08-08T00:40:43;99150.72;;;13.72;100.00
28588;BME280;15787;49.662;10.162;2023-08-08T00:43:16;99147.38;;;13.64;100.00
28588;BME280;15787;49.662;10.162;2023-08-08T00:45:50;99149.81;;;13.87;100.00
28588;BME280;15787;49.662;10.162;2023-08-08T00:48:23;99148.47;;;13.79;100.00
28588;BME280;15787;49.662;10.162;2023-08-08T00:50:57;99141.72;;;13.89;100.00
28588;BME280;15787;49.662;10.162;2023-08-08T00:53:31;99142.03;;;14.04;100.00
28588;BME280;15787;49.662;10.162;2023-08-08T00:56:04;99145.00;;;13.88;100.00
28588;BME280;15787;49.662;10.162;2023-08-08T00:58:38;99144.56;;;13.77;100.00
28588;BME280;15787;49.662;10.162;2023-08-08T01:01:13;99133.56;;;13.82;100.00
28588;BME280;15787;49.662;10.162;2023-08-08T01:03:48;99138.47;;;13.78;100.00
28588;BME280;15787;49.662;10.162;2023-08-08T01:06:28;99127.72;;;13.77;100.00
28588;BME280;15787;49.662;10.162;2023-08-08T01:09:06;99135.56;;;13.82;100.00
28588;BME280;15787;49.662;10.162;2023-08-08T01:11:42;99128.28;;;13.84;100.00
28588;BME280;15787;49.662;10.162;2023-08-08T01:14:16;99123.56;;;13.81;100.00
28588;BME280;15787;49.662;10.162;2023-08-08T01:16:53;99126.34;;;13.81;100.00
28588;BME280;15787;49.662;10.162;2023-08-08T01:19:31;99123.00;;;13.74;100.00
28588;BME280;15787;49.662;10.162;2023-08-08T01:22:11;99121.06;;;13.96;100.00
28588;BME280;15787;49.662;10.162;2023-08-08T01:24:48;99120.06;;;13.90;100.00
28588;BME280;15787;49.662;10.162;2023-08-08T01:27:22;99114.69;;;13.83;100.00
28588;BME280;15787;49.662;10.162;2023-08-08T01:29:55;99113.78;;;13.86;100.00
28588;BME280;15787;49.662;10.162;2023-08-08T01:32:28;99116.72;;;13.82;100.00
28588;BME280;15787;49.662;10.162;2023-08-08T01:35:01;99123.44;;;13.85;100.00
28588;BME280;15787;49.662;10.162;2023-08-08T01:37:39;99119.59;;;13.91;100.00
28588;BME280;15787;49.662;10.162;2023-08-08T01:40:16;99127.38;;;13.75;100.00
28588;BME280;15787;49.662;10.162;2023-08-08T01:42:50;99120.31;;;13.70;100.00
28588;BME280;15787;49.662;10.162;2023-08-08T01:45:24;99123.47;;;13.60;100.00
28588;BME280;15787;49.662;10.162;2023-08-08T01:47:57;99131.31;;;13.65;100.00
28588;BME280;15787;49.662;10.162;2023-08-08T01:50:30;99132.31;;;13.46;100.00
28588;BME280;15787;49.662;10.162;2023-08-08T01:53:03;99134.13;;;13.52;100.00
28588;BME280;15787;49.662;10.162;2023-08-08T01:55:38;99128.97;;;13.51;100.00
28588;BME280;15787;49.662;10.162;2023-08-08T01:58:11;99122.00;;;13.55;100.00
28588;BME280;15787;49.662;10.162;2023-08-08T02:00:44;99115.69;;;13.76;100.00
28588;BME280;15787;49.662;10.162;2023-08-08T02:03:18;99109.44;;;13.72;100.00
28588;BME280;15787;49.662;10.162;2023-08-08T02:05:51;99111.44;;;13.72;100.00
28588;BME280;15787;49.662;10.162;2023-08-08T02:08:24;99115.25;;;13.65;100.00
28588;BME280;15787;49.662;10.162;2023-08-08T02:10:59;99114.34;;;13.68;100.00
28588;BME280;15787;49.662;10.162;2023-08-08T02:13:32;99113.00;;;13.60;100.00
28588;BME280;15787;49.662;10.162;2023-08-08T02:16:05;99108.31;;;13.57;100.00
28588;BME280;15787;49.662;10.162;2023-08-08T02:18:38;99116.75;;;13.57;100.00
28588;BME280;15787;49.662;10.162;2023-08-08T02:21:12;99117.50;;;13.45;100.00
28588;BME280;15787;49.662;10.162;2023-08-08T02:23:45;99105.97;;;13.43;100.00
28588;BME280;15787;49.662;10.162;2023-08-08T02:26:20;99111.78;;;13.49;100.00
28588;BME280;15787;49.662;10.162;2023-08-08T02:28:52;99113.94;;;13.57;100.00
28588;BME280;15787;49.662;10.162;2023-08-08T02:31:26;99111.69;;;13.52;100.00
28588;BME280;15787;49.662;10.162;2023-08-08T02:33:59;99107.53;;;13.44;100.00
28588;BME280;15787;49.662;10.162;2023-08-08T02:36:32;99103.94;;;13.18;100.00
28588;BME280;15787;49.662;10.162;2023-08-08T02:39:05;99102.34;;;13.17;100.00
28588;BME280;15787;49.662;10.162;2023-08-08T02:41:40;99111.56;;;13.18;100.00
28588;BME280;15787;49.662;10.162;2023-08-08T02:44:14;99107.84;;;13.08;100.00
28588;BME280;15787;49.662;10.162;2023-08-08T02:46:47;99108.97;;;13.11;100.00
28588;BME280;15787;49.662;10.162;2023-08-08T02:49:20;99110.44;;;13.15;100.00
28588;BME280;15787;49.662;10.162;2023-08-08T02:51:53;99117.34;;;12.98;100.00
28588;BME280;15787;49.662;10.162;2023-08-08T02:54:29;99116.97;;;12.84;100.00
28588;BME280;15787;49.662;10.162;2023-08-08T02:57:04;99112.84;;;12.88;100.00
28588;BME280;15787;49.662;10.162;2023-08-08T02:59:37;99115.38;;;13.11;100.00
28588;BME280;15787;49.662;10.162;2023-08-08T03:02:11;99119.81;;;12.96;100.00
28588;BME280;15787;49.662;10.162;2023-08-08T03:04:44;99118.31;;;12.92;100.00
28588;BME280;15787;49.662;10.162;2023-08-08T03:07:18;99122.47;;;13.00;100.00
28588;BME280;15787;49.662;10.162;2023-08-08T03:09:51;99117.66;;;12.88;100.00
28588;BME280;15787;49.662;10.162;2023-08-08T03:12:25;99111.00;;;12.82;100.00
28588;BME280;15787;49.662;10.162;2023-08-08T03:14:59;99106.75;;;12.77;100.00
28588;BME280;15787;49.662;10.162;2023-08-08T03:17:32;99115.81;;;12.68;100.00
28588;BME280;15787;49.662;10.162;2023-08-08T03:20:07;99116.97;;;12.84;100.00
28588;BME280;15787;49.662;10.162;2023-08-08T03:22:43;99113.44;;;12.67;100.00
28588;BME280;15787;49.662;10.162;2023-08-08T03:25:17;99114.78;;;12.62;100.00
28588;BME280;15787;49.662;10.162;2023-08-08T03:27:51;99116.25;;;12.67;100.00
28588;BME280;15787;49.662;10.162;2023-08-08T03:30:25;99107.31;;;12.85;100.00
28588;BME280;15787;49.662;10.162;2023-08-08T03:32:58;99107.28;;;12.72;100.00
28588;BME280;15787;49.662;10.162;2023-08-08T03:35:33;99114.03;;;12.75;100.00
28588;BME280;15787;49.662;10.162;2023-08-08T03:38:06;99111.91;;;12.79;100.00
28588;BME280;15787;49.662;10.162;2023-08-08T03:40:39;99110.75;;;12.63;100.00
28588;BME280;15787;49.662;10.162;2023-08-08T03:43:16;99113.03;;;12.81;100.00
28588;BME280;15787;49.662;10.162;2023-08-08T03:45:49;99103.47;;;12.66;100.00
28588;BME280;15787;49.662;10.162;2023-08-08T03:48:22;99117.06;;;12.80;100.00
28588;BME280;15787;49.662;10.162;2023-08-08T03:50:55;99113.19;;;12.61;100.00
28588;BME280;15787;49.662;10.162;2023-08-08T03:53:28;99116.69;;;12.65;100.00
28588;BME280;15787;49.662;10.162;2023-08-08T03:56:01;99117.41;;;12.53;100.00
28588;BME280;15787;49.662;10.162;2023-08-08T03:58:37;99120.47;;;12.59;100.00
28588;BME280;15787;49.662;10.162;2023-08-08T04:01:11;99122.72;;;12.64;100.00
28588;BME280;15787;49.662;10.162;2023-08-08T04:03:44;99120.16;;;12.69;100.00
28588;BME280;15787;49.662;10.162;2023-08-08T04:06:17;99125.47;;;12.51;100.00
28588;BME280;15787;49.662;10.162;2023-08-08T04:08:50;99132.31;;;12.50;100.00
28588;BME280;15787;49.662;10.162;2023-08-08T04:11:23;99124.88;;;12.73;100.00
28588;BME280;15787;49.662;10.162;2023-08-08T04:13:57;99124.25;;;12.52;100.00
28588;BME280;15787;49.662;10.162;2023-08-08T04:16:30;99127.34;;;12.42;100.00
28588;BME280;15787;49.662;10.162;2023-08-08T04:19:03;99134.41;;;12.46;100.00
28588;BME280;15787;49.662;10.162;2023-08-08T04:21:36;99117.16;;;12.77;100.00
28588;BME280;15787;49.662;10.162;2023-08-08T04:24:09;99122.00;;;12.47;100.00
28588;BME280;15787;49.662;10.162;2023-08-08T04:26:44;99125.75;;;12.41;100.00
28588;BME280;15787;49.662;10.162;2023-08-08T04:29:18;99117.69;;;12.30;100.00
28588;BME280;15787;49.662;10.162;2023-08-08T04:31:51;99113.50;;;12.22;100.00
28588;BME280;15787;49.662;10.162;2023-08-08T04:34:24;99119.09;;;12.22;100.00
28588;BME280;15787;49.662;10.162;2023-08-08T04:36:57;99122.69;;;12.51;100.00
28588;BME280;15787;49.662;10.162;2023-08-08T04:39:30;99125.63;;;12.32;100.00
28588;BME280;15787;49.662;10.162;2023-08-08T04:42:03;99130.09;;;12.29;100.00
28588;BME280;15787;49.662;10.162;2023-08-08T04:44:38;99129.91;;;12.36;100.00
28588;BME280;15787;49.662;10.162;2023-08-08T04:47:11;99125.09;;;12.37;100.00
28588;BME280;15787;49.662;10.162;2023-08-08T04:49:44;99133.69;;;12.30;100.00
28588;BME280;15787;49.662;10.162;2023-08-08T04:52:17;99133.69;;;12.30;100.00
28588;BME280;15787;49.662;10.162;2023-08-08T04:54:50;99130.22;;;12.10;100.00
28588;BME280;15787;49.662;10.162;2023-08-08T04:57:23;99134.69;;;12.07;100.00
28588;BME280;15787;49.662;10.162;2023-08-08T04:59:57;99125.47;;;12.23;100.00
28588;BME280;15787;49.662;10.162;2023-08-08T05:02:33;99126.81;;;12.47;100.00
28588;BME280;15787;49.662;10.162;2023-08-08T05:05:07;99128.22;;;12.39;100.00
28588;BME280;15787;49.662;10.162;2023-08-08T05:07:40;99116.19;;;12.26;100.00
28588;BME280;15787;49.662;10.162;2023-08-08T05:10:13;99119.34;;;12.56;100.00
28588;BME280;15787;49.662;10.162;2023-08-08T05:12:46;99114.69;;;12.66;100.00
28588;BME280;15787;49.662;10.162;2023-08-08T05:15:21;99119.59;;;12.62;100.00
28588;BME280;15787;49.662;10.162;2023-08-08T05:17:54;99110.97;;;12.69;100.00
28588;BME280;15787;49.662;10.162;2023-08-08T05:20:27;99116.03;;;12.74;100.00
28588;BME280;15787;49.662;10.162;2023-08-08T05:23:00;99112.94;;;12.97;100.00
28588;BME280;15787;49.662;10.162;2023-08-08T05:25:33;99116.63;;;12.94;100.00
28588;BME280;15787;49.662;10.162;2023-08-08T05:28:06;99112.22;;;13.09;100.00
28588;BME280;15787;49.662;10.162;2023-08-08T05:30:41;99104.16;;;13.11;100.00
28588;BME280;15787;49.662;10.162;2023-08-08T05:33:14;99103.16;;;13.30;100.00
28588;BME280;15787;49.662;10.162;2023-08-08T05:35:47;99102.50;;;13.26;100.00
28588;BME280;15787;49.662;10.162;2023-08-08T05:38:19;99105.84;;;13.34;100.00
28588;BME280;15787;49.662;10.162;2023-08-08T05:40:52;99103.59;;;13.54;100.00
28588;BME280;15787;49.662;10.162;2023-08-08T05:43:25;99108.97;;;13.61;100.00
28588;BME280;15787;49.662;10.162;2023-08-08T05:46:02;99097.28;;;13.75;100.00
28588;BME280;15787;49.662;10.162;2023-08-08T05:48:36;99107.28;;;13.76;100.00
28588;BME280;15787;49.662;10.162;2023-08-08T05:51:09;99103.44;;;13.96;100.00
28588;BME280;15787;49.662;10.162;2023-08-08T05:53:42;99105.13;;;13.93;100.00
28588;BME280;15787;49.662;10.162;2023-08-08T05:56:16;99110.00;;;14.14;100.00
28588;BME280;15787;49.662;10.162;2023-08-08T05:58:49;99105.13;;;14.27;100.00
28588;BME280;15787;49.662;10.162;2023-08-08T06:01:24;99114.72;;;14.17;100.00
28588;BME280;15787;49.662;10.162;2023-08-08T06:03:57;99113.69;;;14.24;100.00
28588;BME280;15787;49.662;10.162;2023-08-08T06:06:31;99110.69;;;14.31;100.00
28588;BME280;15787;49.662;10.162;2023-08-08T06:09:04;99117.78;;;14.44;100.00
28588;BME280;15787;49.662;10.162;2023-08-08T06:11:37;99117.09;;;14.53;100.00
28588;BME280;15787;49.662;10.162;2023-08-08T06:14:10;99105.16;;;14.62;100.00
28588;BME280;15787;49.662;10.162;2023-08-08T06:16:44;99101.66;;;14.57;100.00
28588;BME280;15787;49.662;10.162;2023-08-08T06:19:18;99106.13;;;14.68;99.75
28588;BME280;15787;49.662;10.162;2023-08-08T06:21:51;99100.81;;;14.70;99.39
28588;BME280;15787;49.662;10.162;2023-08-08T06:24:24;99096.50;;;14.78;99.26
28588;BME280;15787;49.662;10.162;2023-08-08T06:26:58;99094.00;;;14.80;99.39
28588;BME280;15787;49.662;10.162;2023-08-08T06:29:31;99097.09;;;14.94;98.27
28588;BME280;15787;49.662;10.162;2023-08-08T06:32:06;99098.41;;;15.02;97.77
28588;BME280;15787;49.662;10.162;2023-08-08T06:34:39;99100.25;;;15.05;96.80
28588;BME280;15787;49.662;10.162;2023-08-08T06:37:13;99095.63;;;15.11;96.35
28588;BME280;15787;49.662;10.162;2023-08-08T06:39:46;99107.38;;;15.19;96.36
28588;BME280;15787;49.662;10.162;2023-08-08T06:42:19;99107.16;;;15.35;95.85
28588;BME280;15787;49.662;10.162;2023-08-08T06:44:59;99100.84;;;15.53;95.53
28588;BME280;15787;49.662;10.162;2023-08-08T06:47:34;99114.53;;;15.72;94.95
28588;BME280;15787;49.662;10.162;2023-08-08T06:50:08;99103.25;;;15.72;94.18
28588;BME280;15787;49.662;10.162;2023-08-08T06:52:42;99111.44;;;15.89;94.05
28588;BME280;15787;49.662;10.162;2023-08-08T06:55:15;99106.13;;;16.00;92.25
28588;BME280;15787;49.662;10.162;2023-08-08T06:57:48;99104.16;;;16.36;93.05
28588;BME280;15787;49.662;10.162;2023-08-08T07:00:22;99105.41;;;16.26;89.54
28588;BME280;15787;49.662;10.162;2023-08-08T07:03:00;99102.41;;;16.30;89.36
28588;BME280;15787;49.662;10.162;2023-08-08T07:05:33;99104.47;;;16.48;89.57
28588;BME280;15787;49.662;10.162;2023-08-08T07:08:06;99099.16;;;16.50;87.79
28588;BME280;15787;49.662;10.162;2023-08-08T07:10:40;99089.94;;;16.58;88.44
28588;BME280;15787;49.662;10.162;2023-08-08T07:13:13;99089.31;;;16.72;87.92
28588;BME280;15787;49.662;10.162;2023-08-08T07:15:50;99093.50;;;16.86;87.71
28588;BME280;15787;49.662;10.162;2023-08-08T07:18:25;99094.44;;;16.92;87.65
28588;BME280;15787;49.662;10.162;2023-08-08T07:20:58;99092.03;;;17.08;86.68
28588;BME280;15787;49.662;10.162;2023-08-08T07:23:32;99097.50;;;17.21;87.27
28588;BME280;15787;49.662;10.162;2023-08-08T07:26:05;99097.81;;;17.23;83.95
28588;BME280;15787;49.662;10.162;2023-08-08T07:28:38;99089.56;;;17.11;83.76
28588;BME280;15787;49.662;10.162;2023-08-08T07:31:11;99086.53;;;17.23;84.17
28588;BME280;15787;49.662;10.162;2023-08-08T07:33:46;99090.75;;;17.28;83.49
28588;BME280;15787;49.662;10.162;2023-08-08T07:36:19;99084.38;;;17.51;84.32
28588;BME280;15787;49.662;10.162;2023-08-08T07:38:52;99086.94;;;17.40;82.98
28588;BME280;15787;49.662;10.162;2023-08-08T07:41:31;99078.97;;;17.71;82.62
28588;BME280;15787;49.662;10.162;2023-08-08T07:44:05;99084.81;;;17.91;80.07
28588;BME280;15787;49.662;10.162;2023-08-08T07:46:38;99086.00;;;17.76;78.75
28588;BME280;15787;49.662;10.162;2023-08-08T07:49:21;99079.84;;;17.86;78.45
28588;BME280;15787;49.662;10.162;2023-08-08T07:51:54;99087.91;;;18.02;75.90
28588;BME280;15787;49.662;10.162;2023-08-08T07:54:27;99082.69;;;18.10;76.17
28588;BME280;15787;49.662;10.162;2023-08-08T07:57:01;99074.34;;;18.30;75.48
28588;BME280;15787;49.662;10.162;2023-08-08T07:59:34;99088.91;;;18.14;74.27
28588;BME280;15787;49.662;10.162;2023-08-08T08:02:07;99083.81;;;18.27;73.58
28588;BME280;15787;49.662;10.162;2023-08-08T08:04:42;99090.66;;;18.35;72.47
28588;BME280;15787;49.662;10.162;2023-08-08T08:07:15;99087.88;;;18.50;74.10
28588;BME280;15787;49.662;10.162;2023-08-08T08:09:48;99079.53;;;18.70;75.12
28588;BME280;15787;49.662;10.162;2023-08-08T08:12:27;99082.28;;;18.79;72.14
28588;BME280;15787;49.662;10.162;2023-08-08T08:15:01;99075.91;;;18.55;69.19
28588;BME280;15787;49.662;10.162;2023-08-08T08:17:34;99088.69;;;18.65;69.53
28588;BME280;15787;49.662;10.162;2023-08-08T08:20:09;99091.25;;;18.92;68.89
28588;BME280;15787;49.662;10.162;2023-08-08T08:22:46;99090.16;;;18.60;68.04
28588;BME280;15787;49.662;10.162;2023-08-08T08:25:20;99077.41;;;18.79;67.03
28588;BME280;15787;49.662;10.162;2023-08-08T08:27:53;99081.91;;;18.86;66.79
28588;BME280;15787;49.662;10.162;2023-08-08T08:30:26;99081.69;;;18.89;66.12
28588;BME280;15787;49.662;10.162;2023-08-08T08:32:59;99079.38;;;19.32;66.25
28588;BME280;15787;49.662;10.162;2023-08-08T08:35:35;99073.78;;;19.23;65.21
28588;BME280;15787;49.662;10.162;2023-08-08T08:38:08;99076.03;;;19.33;64.58
28588;BME280;15787;49.662;10.162;2023-08-08T08:40:41;99072.63;;;19.29;63.33
28588;BME280;15787;49.662;10.162;2023-08-08T08:43:16;99064.09;;;19.59;63.67
28588;BME280;15787;49.662;10.162;2023-08-08T08:45:52;99065.72;;;19.80;63.33
28588;BME280;15787;49.662;10.162;2023-08-08T08:48:25;99066.03;;;20.22;64.18
28588;BME280;15787;49.662;10.162;2023-08-08T08:51:00;99066.63;;;19.91;61.85
28588;BME280;15787;49.662;10.162;2023-08-08T08:53:34;99068.56;;;20.20;62.61
28588;BME280;15787;49.662;10.162;2023-08-08T08:56:11;99075.59;;;20.04;61.62
28588;BME280;15787;49.662;10.162;2023-08-08T08:58:44;99070.03;;;19.75;61.05
28588;BME280;15787;49.662;10.162;2023-08-08T09:01:18;99070.63;;;19.99;62.30
28588;BME280;15787;49.662;10.162;2023-08-08T09:03:52;99071.06;;;20.12;60.40
28588;BME280;15787;49.662;10.162;2023-08-08T09:06:26;99079.03;;;20.29;60.92
28588;BME280;15787;49.662;10.162;2023-08-08T09:09:01;99066.69;;;20.32;60.26
28588;BME280;15787;49.662;10.162;2023-08-08T09:11:49;99068.28;;;20.58;61.04
28588;BME280;15787;49.662;10.162;2023-08-08T09:14:24;99072.34;;;20.32;60.63
28588;BME280;15787;49.662;10.162;2023-08-08T09:16:57;99065.91;;;20.31;59.21
28588;BME280;15787;49.662;10.162;2023-08-08T09:19:30;99064.53;;;20.67;59.11
28588;BME280;15787;49.662;10.162;2023-08-08T09:22:05;99061.66;;;20.87;60.09
28588;BME280;15787;49.662;10.162;2023-08-08T09:24:39;99057.38;;;21.28;59.75
28588;BME280;15787;49.662;10.162;2023-08-08T09:27:13;99058.06;;;21.18;57.57
28588;BME280;15787;49.662;10.162;2023-08-08T09:29:47;99063.63;;;20.81;59.05
28588;BME280;15787;49.662;10.162;2023-08-08T09:32:20;99048.25;;;20.67;57.78
28588;BME280;15787;49.662;10.162;2023-08-08T09:34:53;99058.53;;;21.11;57.53
28588;BME280;15787;49.662;10.162;2023-08-08T09:37:28;99041.03;;;20.41;56.58
28588;BME280;15787;49.662;10.162;2023-08-08T09:40:03;99050.97;;;19.96;57.15
28588;BME280;15787;49.662;10.162;2023-08-08T09:42:39;99050.38;;;20.27;58.48
28588;BME280;15787;49.662;10.162;2023-08-08T09:45:12;99045.97;;;20.05;57.83
28588;BME280;15787;49.662;10.162;2023-08-08T09:47:46;99044.13;;;20.02;57.86
28588;BME280;15787;49.662;10.162;2023-08-08T09:50:19;99048.34;;;19.72;57.16
28588;BME280;15787;49.662;10.162;2023-08-08T09:52:54;99036.00;;;19.55;58.61
28588;BME280;15787;49.662;10.162;2023-08-08T09:55:28;99031.22;;;20.22;60.31
28588;BME280;15787;49.662;10.162;2023-08-08T09:58:02;99034.69;;;20.51;60.09
28588;BME280;15787;49.662;10.162;2023-08-08T10:00:35;99039.72;;;20.22;60.40
28588;BME280;15787;49.662;10.162;2023-08-08T10:03:09;99038.31;;;20.11;59.24
28588;BME280;15787;49.662;10.162;2023-08-08T10:05:48;99028.75;;;20.29;59.37
28588;BME280;15787;49.662;10.162;2023-08-08T10:08:23;99030.94;;;20.19;60.02
28588;BME280;15787;49.662;10.162;2023-08-08T10:10:56;99030.94;;;19.99;58.68
28588;BME280;15787;49.662;10.162;2023-08-08T10:13:30;99022.50;;;19.85;57.05
28588;BME280;15787;49.662;10.162;2023-08-08T10:16:04;99024.72;;;19.95;57.04
28588;BME280;15787;49.662;10.162;2023-08-08T10:18:40;99017.63;;;20.46;56.83
28588;BME280;15787;49.662;10.162;2023-08-08T10:21:13;99019.81;;;20.88;57.35
28588;BME280;15787;49.662;10.162;2023-08-08T10:23:48;99021.19;;;21.23;56.65
28588;BME280;15787;49.662;10.162;2023-08-08T10:26:23;99014.78;;;21.28;55.71
28588;BME280;15787;49.662;10.162;2023-08-08T10:29:00;99018.50;;;21.82;55.81
28588;BME280;15787;49.662;10.162;2023-08-08T10:31:34;99018.72;;;21.79;57.05
28588;BME280;15787;49.662;10.162;2023-08-08T10:34:11;99019.56;;;20.86;55.07
28588;BME280;15787;49.662;10.162;2023-08-08T10:36:48;99023.19;;;20.86;55.85
28588;BME280;15787;49.662;10.162;2023-08-08T10:39:24;99021.41;;;20.89;54.84
28588;BME280;15787;49.662;10.162;2023-08-08T10:42:00;99021.25;;;21.29;55.32
28588;BME280;15787;49.662;10.162;2023-08-08T10:44:40;99016.91;;;20.76;55.88
28588;BME280;15787;49.662;10.162;2023-08-08T10:47:14;99018.63;;;20.94;55.75
28588;BME280;15787;49.662;10.162;2023-08-08T10:49:56;99025.41;;;21.02;55.51
28588;BME280;15787;49.662;10.162;2023-08-08T10:52:29;99035.13;;;21.21;55.46
28588;BME280;15787;49.662;10.162;2023-08-08T10:55:18;99018.94;;;21.27;55.57
28588;BME280;15787;49.662;10.162;2023-08-08T10:57:54;99016.31;;;20.98;56.13
28588;BME280;15787;49.662;10.162;2023-08-08T11:00:30;99016.47;;;21.46;55.68
28588;BME280;15787;49.662;10.162;2023-08-08T11:03:04;99017.75;;;21.45;54.94
28588;BME280;15787;49.662;10.162;2023-08-08T11:05:38;99026.66;;;21.01;55.87
28588;BME280;15787;49.662;10.162;2023-08-08T11:08:11;99021.19;;;21.23;56.39
28588;BME280;15787;49.662;10.162;2023-08-08T11:10:51;99026.31;;;21.51;57.71
28588;BME280;15787;49.662;10.162;2023-08-08T11:13:25;99012.75;;;21.71;55.48
28588;BME280;15787;49.662;10.162;2023-08-08T11:15:58;99027.56;;;21.44;55.53
28588;BME280;15787;49.662;10.162;2023-08-08T11:18:33;99021.31;;;21.77;55.10
28588;BME280;15787;49.662;10.162;2023-08-08T11:21:11;99008.09;;;21.74;54.86
28588;BME280;15787;49.662;10.162;2023-08-08T11:26:23;99013.09;;;22.43;55.60
28588;BME280;15787;49.662;10.162;2023-08-08T11:28:59;99017.44;;;22.28;54.59
28588;BME280;15787;49.662;10.162;2023-08-08T11:31:34;99002.09;;;22.84;53.76
28588;BME280;15787;49.662;10.162;2023-08-08T11:34:08;99010.59;;;22.73;52.53
28588;BME280;15787;49.662;10.162;2023-08-08T11:36:43;99002.25;;;22.47;52.25
28588;BME280;15787;49.662;10.162;2023-08-08T11:39:17;98997.44;;;23.31;53.49
28588;BME280;15787;49.662;10.162;2023-08-08T11:41:52;98997.91;;;22.63;51.18
28588;BME280;15787;49.662;10.162;2023-08-08T11:44:27;98995.25;;;22.48;53.54
28588;BME280;15787;49.662;10.162;2023-08-08T11:47:01;99001.88;;;22.07;54.00
28588;BME280;15787;49.662;10.162;2023-08-08T11:49:42;99006.88;;;22.39;56.42
28588;BME280;15787;49.662;10.162;2023-08-08T11:52:15;99006.66;;;22.48;54.19
28588;BME280;15787;49.662;10.162;2023-08-08T11:54:51;99006.78;;;22.12;54.57
28588;BME280;15787;49.662;10.162;2023-08-08T11:57:26;98990.94;;;22.81;55.44
28588;BME280;15787;49.662;10.162;2023-08-08T11:59:59;98986.28;;;22.72;56.37
28588;BME280;15787;49.662;10.162;2023-08-08T12:02:43;98995.09;;;22.80;52.63
28588;BME280;15787;49.662;10.162;2023-08-08T12:05:20;98991.22;;;22.94;53.47
28588;BME280;15787;49.662;10.162;2023-08-08T12:07:54;98992.78;;;22.89;51.94
28588;BME280;15787;49.662;10.162;2023-08-08T12:10:27;98980.34;;;23.09;52.84
28588;BME280;15787;49.662;10.162;2023-08-08T12:13:02;98979.22;;;22.40;51.85
28588;BME280;15787;49.662;10.162;2023-08-08T12:15:35;98983.19;;;23.42;53.18
28588;BME280;15787;49.662;10.162;2023-08-08T12:18:08;98999.00;;;23.10;50.88
28588;BME280;15787;49.662;10.162;2023-08-08T12:20:42;98983.47;;;22.78;49.61
28588;BME280;15787;49.662;10.162;2023-08-08T12:23:16;98993.44;;;22.45;50.19
28588;BME280;15787;49.662;10.162;2023-08-08T12:25:49;98982.34;;;22.53;49.92
28588;BME280;15787;49.662;10.162;2023-08-08T12:28:24;98992.31;;;22.15;50.04
28588;BME280;15787;49.662;10.162;2023-08-08T12:30:57;98988.34;;;23.21;51.39
28588;BME280;15787;49.662;10.162;2023-08-08T12:33:30;98988.91;;;23.31;51.91
28588;BME280;15787;49.662;10.162;2023-08-08T12:36:03;98985.66;;;22.40;51.83
28588;BME280;15787;49.662;10.162;2023-08-08T12:38:37;98980.88;;;22.80;52.66
28588;BME280;15787;49.662;10.162;2023-08-08T12:41:10;98993.56;;;23.17;52.21
28588;BME280;15787;49.662;10.162;2023-08-08T12:43:45;98995.31;;;22.71;51.89
28588;BME280;15787;49.662;10.162;2023-08-08T12:46:18;98990.88;;;22.58;53.44
28588;BME280;15787;49.662;10.162;2023-08-08T12:48:51;98990.44;;;22.82;54.05
28588;BME280;15787;49.662;10.162;2023-08-08T12:51:25;98995.09;;;22.74;53.23
28588;BME280;15787;49.662;10.162;2023-08-08T12:53:58;98995.63;;;22.02;53.19
28588;BME280;15787;49.662;10.162;2023-08-08T12:56:31;98984.09;;;22.34;53.50
28588;BME280;15787;49.662;10.162;2023-08-08T12:59:06;98989.28;;;22.41;52.98
28588;BME280;15787;49.662;10.162;2023-08-08T13:01:39;98980.53;;;22.55;52.95
28588;BME280;15787;49.662;10.162;2023-08-08T13:04:13;98985.41;;;22.38;53.40
28588;BME280;15787;49.662;10.162;2023-08-08T13:06:50;98983.09;;;22.48;53.08
28588;BME280;15787;49.662;10.162;2023-08-08T13:09:24;98993.88;;;22.16;51.68
28588;BME280;15787;49.662;10.162;2023-08-08T13:12:00;98995.72;;;22.19;51.22
28588;BME280;15787;49.662;10.162;2023-08-08T13:14:34;98981.13;;;23.04;51.70
28588;BME280;15787;49.662;10.162;2023-08-08T13:17:08;98970.50;;;22.93;51.01
28588;BME280;15787;49.662;10.162;2023-08-08T13:19:41;98966.38;;;22.94;49.67
28588;BME280;15787;49.662;10.162;2023-08-08T13:22:14;98966.09;;;22.87;48.89
28588;BME280;15787;49.662;10.162;2023-08-08T13:24:47;98976.16;;;22.54;50.53